Time;durP1;ratioP1;P1;durP2;ratioP2;P2;SDS_P1;SDS_P2;PMS_P1;PMS_P2;Temp;Humidity;BMP_temperature;BMP_pressure;BME280_temperature;BME280_humidity;BME280_pressure;Samples;Min_cycle;Max_cycle;Signal;HPM_P1;HPM_P2
2023/05/07 00:01:46;;;;;;;12.35;7.68;;;11.00;99.90;;;;;;4979838;28;20038;-65
2023/05/07 00:04:13;;;;;;;11.63;7.63;;;11.00;99.90;;;;;;4982772;28;20084;-65
2023/05/07 00:06:39;;;;;;;12.90;8.43;;;11.00;99.90;;;;;;4969183;28;20714;-65
2023/05/07 00:09:06;;;;;;;13.02;7.75;;;11.00;99.90;;;;;;4970480;28;20068;-65
2023/05/07 00:11:32;;;;;;;13.68;8.05;;;11.00;99.90;;;;;;4973746;28;20038;-65
2023/05/07 00:13:58;;;;;;;13.85;8.30;;;11.00;99.90;;;;;;4974899;28;20045;-65
2023/05/07 00:16:24;;;;;;;11.77;7.85;;;11.10;99.90;;;;;;4974213;28;20038;-65
2023/05/07 00:18:50;;;;;;;11.27;7.57;;;11.00;99.90;;;;;;4969760;28;20097;-65
2023/05/07 00:21:16;;;;;;;14.02;7.18;;;11.00;99.90;;;;;;4975122;28;20134;-65
2023/05/07 00:23:41;;;;;;;11.52;8.07;;;11.10;99.90;;;;;;4966699;28;20035;-65
2023/05/07 00:26:07;;;;;;;12.98;7.47;;;11.00;99.90;;;;;;4973035;28;20041;-65
2023/05/07 00:28:33;;;;;;;10.77;7.22;;;11.00;99.90;;;;;;4969170;28;20028;-65
2023/05/07 00:30:59;;;;;;;15.48;8.25;;;11.10;99.90;;;;;;4974118;28;20455;-65
2023/05/07 00:33:26;;;;;;;10.70;7.20;;;11.10;99.90;;;;;;4970972;28;20031;-65
2023/05/07 00:35:54;;;;;;;11.00;7.07;;;11.00;99.90;;;;;;4973974;28;20049;-65
2023/05/07 00:38:20;;;;;;;9.95;6.82;;;11.00;99.90;;;;;;4969648;28;20290;-65
2023/05/07 00:40:46;;;;;;;13.63;6.68;;;11.10;99.90;;;;;;4966099;28;20532;-65
2023/05/07 00:43:12;;;;;;;10.02;6.55;;;11.10;99.90;;;;;;4969736;28;20046;-65
2023/05/07 00:45:38;;;;;;;12.27;7.50;;;11.10;99.90;;;;;;4972010;28;20407;-65
2023/05/07 00:48:04;;;;;;;7.70;5.80;;;11.10;99.90;;;;;;4963754;28;20037;-65
2023/05/07 00:50:32;;;;;;;9.23;5.78;;;11.00;99.90;;;;;;4971057;28;20122;-65
2023/05/07 00:52:59;;;;;;;13.23;6.30;;;11.00;99.90;;;;;;4969789;28;20129;-65
2023/05/07 00:55:25;;;;;;;10.27;6.57;;;11.00;99.90;;;;;;4970945;28;20566;-65
2023/05/07 00:57:52;;;;;;;7.93;5.75;;;11.00;99.90;;;;;;4965794;28;20034;-65
2023/05/07 01:00:19;;;;;;;8.50;6.82;;;11.10;99.90;;;;;;4969937;28;20030;-65
2023/05/07 01:02:46;;;;;;;9.27;6.45;;;11.10;99.90;;;;;;4978718;28;20034;-65
2023/05/07 01:05:15;;;;;;;9.07;6.50;;;11.20;99.90;;;;;;4971021;28;20027;-65
2023/05/07 01:07:43;;;;;;;12.60;6.00;;;11.10;99.90;;;;;;4965891;28;20050;-65
2023/05/07 01:10:10;;;;;;;10.27;6.78;;;11.10;99.90;;;;;;4960987;28;20073;-65
2023/05/07 01:12:37;;;;;;;11.13;6.90;;;11.10;99.90;;;;;;4973159;28;20030;-65
2023/05/07 01:15:05;;;;;;;9.63;5.95;;;11.20;99.90;;;;;;4966926;28;20035;-65
2023/05/07 01:17:35;;;;;;;9.00;6.72;;;11.20;99.90;;;;;;4964927;28;20065;-66
2023/05/07 01:20:02;;;;;;;11.63;6.70;;;11.20;99.90;;;;;;4965775;28;20197;-65
2023/05/07 01:22:36;;;;;;;10.68;6.82;;;11.20;99.90;;;;;;4964374;28;20168;-65
2023/05/07 01:25:03;;;;;;;9.65;6.80;;;11.10;99.90;;;;;;4971149;28;20558;-65
2023/05/07 01:27:33;;;;;;;10.35;6.50;;;11.20;99.90;;;;;;4970672;28;20076;-65
2023/05/07 01:29:59;;;;;;;7.55;5.93;;;11.20;99.90;;;;;;4967260;28;20030;-65
2023/05/07 01:32:37;;;;;;;7.90;6.22;;;11.20;99.90;;;;;;4971452;28;20034;-65
2023/05/07 01:35:06;;;;;;;9.85;6.05;;;11.20;99.90;;;;;;4973554;28;20093;-65
2023/05/07 01:37:32;;;;;;;9.45;5.85;;;11.20;99.90;;;;;;4971294;28;20149;-65
2023/05/07 01:39:58;;;;;;;10.82;7.03;;;11.20;99.90;;;;;;4971604;28;20031;-65
2023/05/07 01:42:25;;;;;;;7.28;5.70;;;11.20;99.90;;;;;;4968158;28;20118;-65
2023/05/07 01:44:51;;;;;;;10.55;6.60;;;11.20;99.90;;;;;;4965366;28;20035;-65
2023/05/07 01:47:17;;;;;;;9.55;6.20;;;11.20;99.90;;;;;;4962181;28;20053;-65
2023/05/07 01:49:43;;;;;;;10.40;6.70;;;11.20;99.90;;;;;;4961662;28;20089;-65
2023/05/07 01:52:10;;;;;;;10.02;6.45;;;11.20;99.90;;;;;;4966542;28;20030;-65
2023/05/07 01:54:36;;;;;;;10.27;5.95;;;11.20;99.90;;;;;;4967280;28;20035;-65
2023/05/07 01:57:02;;;;;;;10.00;6.15;;;11.10;99.90;;;;;;4965536;28;20490;-65
2023/05/07 01:59:28;;;;;;;9.15;6.00;;;11.10;99.90;;;;;;4971974;28;20115;-65
2023/05/07 02:01:54;;;;;;;8.38;5.43;;;11.10;99.90;;;;;;4970670;28;20158;-65
2023/05/07 02:04:20;;;;;;;9.65;5.95;;;11.10;99.90;;;;;;4959735;28;20030;-64
2023/05/07 02:06:46;;;;;;;9.25;6.20;;;11.10;99.90;;;;;;4960754;28;20117;-67
2023/05/07 02:09:14;;;;;;;7.82;5.85;;;11.10;99.90;;;;;;4959040;28;20042;-67
2023/05/07 02:11:42;;;;;;;12.93;5.82;;;11.20;99.90;;;;;;4966644;28;20038;-67
2023/05/07 02:14:07;;;;;;;8.77;5.55;;;11.10;99.90;;;;;;4964732;28;20042;-67
2023/05/07 02:16:33;;;;;;;7.82;5.40;;;11.10;99.90;;;;;;4964313;28;20035;-67
2023/05/07 02:18:59;;;;;;;6.43;5.00;;;11.10;99.90;;;;;;4967945;28;20403;-67
2023/05/07 02:21:25;;;;;;;9.57;4.70;;;11.10;99.90;;;;;;4970247;28;20022;-67
2023/05/07 02:23:51;;;;;;;6.68;5.22;;;11.20;99.90;;;;;;4972495;28;20523;-67
2023/05/07 02:26:17;;;;;;;9.20;5.10;;;11.20;99.90;;;;;;4967061;28;20031;-67
2023/05/07 02:28:42;;;;;;;7.65;5.38;;;11.10;99.90;;;;;;4972678;28;20031;-67
2023/05/07 02:31:09;;;;;;;7.10;4.97;;;11.10;99.90;;;;;;4968086;28;20050;-67
2023/05/07 02:33:36;;;;;;;8.63;5.22;;;11.20;99.90;;;;;;4972332;28;20034;-67
2023/05/07 02:36:09;;;;;;;6.63;4.88;;;11.20;99.90;;;;;;4958769;28;20038;-67
2023/05/07 02:38:41;;;;;;;10.82;5.55;;;11.10;99.90;;;;;;4963057;28;20031;-67
2023/05/07 02:41:06;;;;;;;6.88;5.00;;;11.20;99.90;;;;;;4962380;28;20035;-67
2023/05/07 02:43:32;;;;;;;8.80;5.07;;;11.20;99.90;;;;;;4966060;28;20032;-67
2023/05/07 02:46:05;;;;;;;7.38;5.18;;;11.20;99.90;;;;;;4961276;28;20682;-67
2023/05/07 02:48:34;;;;;;;6.72;4.93;;;11.20;99.90;;;;;;4959107;28;20022;-67
2023/05/07 02:51:01;;;;;;;7.70;5.55;;;11.20;99.90;;;;;;4959629;28;20454;-67
2023/05/07 02:53:27;;;;;;;8.27;4.90;;;11.10;99.90;;;;;;4962473;28;20031;-66
2023/05/07 02:56:02;;;;;;;9.32;5.28;;;11.00;99.90;;;;;;4961970;28;20092;-67
2023/05/07 02:58:28;;;;;;;8.82;5.18;;;11.10;99.90;;;;;;4961183;28;20739;-67
2023/05/07 03:00:57;;;;;;;6.00;4.68;;;11.00;99.90;;;;;;4956539;28;20045;-67
2023/05/07 03:03:51;;;;;;;;;;;11.10;99.90;;;;;;4962182;28;20117;-66
2023/05/07 03:06:16;;;;;;;9.80;4.93;;;11.00;99.90;;;;;;4960494;28;19913;-67
2023/05/07 03:08:42;;;;;;;7.88;5.20;;;11.00;99.90;;;;;;4967600;28;20091;-67
2023/05/07 03:11:08;;;;;;;7.38;4.65;;;10.90;99.90;;;;;;4958222;28;20574;-67
2023/05/07 03:13:34;;;;;;;6.18;5.10;;;10.90;99.90;;;;;;4968849;28;20027;-67
2023/05/07 03:16:00;;;;;;;9.98;5.22;;;10.90;99.90;;;;;;4964621;28;20045;-67
2023/05/07 03:18:26;;;;;;;8.23;4.60;;;10.80;99.90;;;;;;4968280;28;20575;-67
2023/05/07 03:20:52;;;;;;;7.57;5.30;;;10.80;99.90;;;;;;4959976;28;20081;-67
2023/05/07 03:23:18;;;;;;;8.18;5.85;;;10.80;99.90;;;;;;4958263;28;20396;-67
2023/05/07 03:25:44;;;;;;;6.63;4.72;;;10.80;99.90;;;;;;4956914;28;20168;-66
2023/05/07 03:28:10;;;;;;;9.88;5.70;;;10.70;99.90;;;;;;4958248;28;20030;-67
2023/05/07 03:30:45;;;;;;;6.82;4.88;;;10.80;99.90;;;;;;4970726;28;20034;-66
2023/05/07 03:33:10;;;;;;;9.93;5.07;;;10.80;99.90;;;;;;4965191;28;20495;-64
2023/05/07 03:35:37;;;;;;;7.18;5.18;;;10.80;99.90;;;;;;4971104;28;20697;-66
2023/05/07 03:38:03;;;;;;;6.38;4.70;;;10.90;99.90;;;;;;4969515;28;20041;-67
2023/05/07 03:40:32;;;;;;;8.25;5.28;;;10.90;99.90;;;;;;4969898;28;20035;-67
2023/05/07 03:42:59;;;;;;;9.88;5.50;;;10.90;99.90;;;;;;4964133;28;20081;-66
2023/05/07 03:45:27;;;;;;;8.60;4.80;;;11.00;99.90;;;;;;4967860;28;20694;-67
2023/05/07 03:48:11;;;;;;;9.65;5.20;;;10.90;99.90;;;;;;4973741;28;20049;-67
2023/05/07 03:50:38;;;;;;;7.68;6.35;;;10.90;99.90;;;;;;4968667;28;20030;-67
2023/05/07 03:53:03;;;;;;;8.05;4.88;;;10.90;99.90;;;;;;4964221;28;20515;-67
2023/05/07 03:55:32;;;;;;;8.35;5.70;;;11.00;99.90;;;;;;4962760;28;20323;-66
2023/05/07 03:57:59;;;;;;;10.88;5.55;;;11.00;99.90;;;;;;4965119;28;20118;-66
2023/05/07 04:00:27;;;;;;;9.25;5.28;;;10.90;99.90;;;;;;4964832;28;20031;-66
2023/05/07 04:02:53;;;;;;;6.70;4.93;;;10.90;99.90;;;;;;4969324;28;20518;-66
2023/05/07 04:05:25;;;;;;;7.28;5.13;;;10.90;99.90;;;;;;4959138;28;20023;-66
2023/05/07 04:07:55;;;;;;;8.48;4.88;;;10.90;99.90;;;;;;4968274;28;20084;-67
2023/05/07 04:10:30;;;;;;;8.32;5.70;;;10.90;99.90;;;;;;4963407;28;20103;-66
2023/05/07 04:12:57;;;;;;;7.68;5.63;;;11.00;99.90;;;;;;4964281;28;20817;-66
2023/05/07 04:15:25;;;;;;;6.35;4.82;;;11.10;99.90;;;;;;4966801;28;20019;-66
2023/05/07 04:17:51;;;;;;;9.15;5.28;;;11.10;99.90;;;;;;4963418;28;20039;-66
2023/05/07 04:20:19;;;;;;;7.68;5.45;;;11.10;99.90;;;;;;4966019;28;20761;-66
2023/05/07 04:22:49;;;;;;;8.55;5.85;;;11.00;99.90;;;;;;4972953;28;20040;-67
2023/05/07 04:25:16;;;;;;;9.27;5.60;;;11.00;99.90;;;;;;4947845;28;20043;-66
2023/05/07 04:27:42;;;;;;;10.55;5.68;;;10.90;99.90;;;;;;4961559;28;20034;-66
2023/05/07 04:30:08;;;;;;;10.23;5.60;;;10.80;99.90;;;;;;4964430;28;20031;-66
2023/05/07 04:32:38;;;;;;;8.55;6.28;;;10.80;99.90;;;;;;4960565;28;20089;-66
2023/05/07 04:35:05;;;;;;;8.80;6.38;;;10.90;99.90;;;;;;4963644;28;20033;-66
2023/05/07 04:37:37;;;;;;;10.20;6.15;;;10.90;99.90;;;;;;4963237;28;20030;-67
2023/05/07 04:40:03;;;;;;;9.68;5.90;;;11.00;99.90;;;;;;4970109;28;20034;-66
2023/05/07 04:42:31;;;;;;;8.82;5.88;;;10.90;99.90;;;;;;4963130;28;20214;-67
2023/05/07 04:45:02;;;;;;;9.15;6.10;;;10.90;99.90;;;;;;4966907;28;20038;-66
2023/05/07 04:47:30;;;;;;;7.35;5.50;;;11.00;99.90;;;;;;4966957;28;20118;-66
2023/05/07 04:49:55;;;;;;;8.63;5.65;;;11.00;99.90;;;;;;4970330;28;20581;-67
2023/05/07 04:52:21;;;;;;;9.13;6.10;;;11.00;99.90;;;;;;4966237;28;20196;-66
2023/05/07 04:54:47;;;;;;;9.80;5.40;;;11.00;99.90;;;;;;4967842;28;20085;-67
2023/05/07 04:57:14;;;;;;;9.55;6.45;;;11.10;99.90;;;;;;4965155;28;20062;-66
2023/05/07 04:59:40;;;;;;;11.55;6.43;;;11.00;99.90;;;;;;4968743;28;20038;-66
2023/05/07 05:02:06;;;;;;;10.95;7.13;;;10.90;99.90;;;;;;4961527;28;20050;-66
2023/05/07 05:04:32;;;;;;;9.32;5.90;;;10.80;99.90;;;;;;4972339;28;20379;-66
2023/05/07 05:06:58;;;;;;;6.85;5.80;;;10.80;99.90;;;;;;4963639;28;20407;-66
2023/05/07 05:09:24;;;;;;;8.85;6.55;;;10.70;99.90;;;;;;4970343;28;20521;-66
2023/05/07 05:11:50;;;;;;;10.35;5.82;;;10.80;99.90;;;;;;4964369;28;20038;-66
2023/05/07 05:14:16;;;;;;;9.35;6.13;;;10.80;99.90;;;;;;4966532;28;20389;-66
2023/05/07 05:16:42;;;;;;;9.70;5.22;;;10.80;99.90;;;;;;4961965;28;20037;-66
2023/05/07 05:19:08;;;;;;;9.60;6.40;;;10.80;99.90;;;;;;4963269;28;20065;-66
2023/05/07 05:21:37;;;;;;;6.88;5.18;;;10.70;99.90;;;;;;4963056;28;20035;-66
2023/05/07 05:24:07;;;;;;;10.13;5.82;;;10.70;99.90;;;;;;4958409;28;20073;-67
2023/05/07 05:26:35;;;;;;;7.35;5.40;;;10.80;99.90;;;;;;4969450;28;20765;-66
2023/05/07 05:29:01;;;;;;;10.23;5.72;;;10.80;99.90;;;;;;4961799;28;20553;-66
2023/05/07 05:31:29;;;;;;;9.93;5.95;;;10.80;99.90;;;;;;4973116;28;20034;-66
2023/05/07 05:33:55;;;;;;;8.90;5.70;;;10.90;99.90;;;;;;4968494;28;20036;-66
2023/05/07 05:36:21;;;;;;;8.73;5.57;;;10.90;99.90;;;;;;4963296;28;20505;-66
2023/05/07 05:38:48;;;;;;;8.77;5.47;;;11.00;99.90;;;;;;4968299;28;20041;-66
2023/05/07 05:41:14;;;;;;;8.60;6.10;;;11.00;99.90;;;;;;4965476;28;20046;-66
2023/05/07 05:43:40;;;;;;;7.18;5.50;;;11.00;99.90;;;;;;4987333;28;20030;-66
2023/05/07 05:46:06;;;;;;;6.30;5.35;;;11.00;99.90;;;;;;4961701;28;20226;-66
2023/05/07 05:48:32;;;;;;;8.48;5.20;;;11.00;99.90;;;;;;4972403;28;20031;-66
2023/05/07 05:51:00;;;;;;;10.60;5.72;;;11.00;99.90;;;;;;4964199;28;20112;-66
2023/05/07 05:53:26;;;;;;;7.00;5.05;;;11.00;99.90;;;;;;4967075;28;20146;-66
2023/05/07 05:55:51;;;;;;;6.57;4.97;;;10.90;99.90;;;;;;4960313;28;20030;-66
2023/05/07 05:58:17;;;;;;;10.52;4.82;;;10.90;99.90;;;;;;4954210;28;20770;-66
2023/05/07 06:00:52;;;;;;;6.80;5.25;;;10.80;99.90;;;;;;4963829;28;20150;-67
2023/05/07 06:03:18;;;;;;;7.60;5.10;;;10.90;99.90;;;;;;4964375;28;20026;-66
2023/05/07 06:05:45;;;;;;;9.65;5.70;;;11.10;99.90;;;;;;4965260;28;20037;-66
2023/05/07 06:08:11;;;;;;;7.05;4.93;;;11.10;99.90;;;;;;4968966;28;20093;-66
2023/05/07 06:10:37;;;;;;;7.32;5.40;;;11.10;99.90;;;;;;4964534;28;20862;-66
2023/05/07 06:13:04;;;;;;;8.50;5.60;;;11.00;99.90;;;;;;4961775;28;20050;-66
2023/05/07 06:15:32;;;;;;;8.43;5.35;;;11.00;99.90;;;;;;4962218;28;20045;-66
2023/05/07 06:18:03;;;;;;;5.60;4.50;;;11.00;99.90;;;;;;4966282;28;20035;-66
2023/05/07 06:20:29;;;;;;;10.27;4.93;;;11.10;99.90;;;;;;4961391;28;20035;-66
2023/05/07 06:22:57;;;;;;;5.53;4.38;;;11.10;99.90;;;;;;4968077;28;20022;-67
2023/05/07 06:25:23;;;;;;;7.28;4.60;;;11.10;99.90;;;;;;4963678;28;20142;-66
2023/05/07 06:27:48;;;;;;;4.97;3.95;;;11.20;99.90;;;;;;4958970;28;20049;-66
2023/05/07 06:30:14;;;;;;;6.53;4.03;;;11.40;99.90;;;;;;4967499;28;20117;-66
2023/05/07 06:32:40;;;;;;;7.15;5.03;;;11.60;99.90;;;;;;4966914;28;20035;-66
2023/05/07 06:35:08;;;;;;;11.20;4.95;;;11.80;99.90;;;;;;4960333;28;20058;-66
2023/05/07 06:37:38;;;;;;;6.43;4.32;;;12.00;99.60;;;;;;4950482;28;20034;-67
2023/05/07 06:40:06;;;;;;;5.97;3.95;;;11.90;99.00;;;;;;4970834;28;20034;-67
2023/05/07 06:42:36;;;;;;;6.53;4.40;;;12.00;99.20;;;;;;4959915;28;20031;-67
2023/05/07 06:45:20;;;;;;;4.43;3.90;;;12.10;99.10;;;;;;4969058;28;20031;-66
2023/05/07 06:47:46;;;;;;;8.13;3.88;;;12.20;99.20;;;;;;4968819;28;20277;-67
2023/05/07 06:50:12;;;;;;;6.13;4.13;;;12.40;99.10;;;;;;4966957;28;20034;-66
2023/05/07 06:52:38;;;;;;;4.75;4.22;;;12.70;98.20;;;;;;4963485;28;20023;-67
2023/05/07 06:55:06;;;;;;;7.70;4.25;;;12.70;98.00;;;;;;4961293;28;20813;-67
2023/05/07 06:57:32;;;;;;;6.97;4.05;;;12.70;97.90;;;;;;4962372;28;20042;-67
2023/05/07 06:59:58;;;;;;;4.90;4.00;;;12.90;98.00;;;;;;4957331;28;20032;-66
2023/05/07 07:02:23;;;;;;;6.50;3.22;;;13.00;97.00;;;;;;4963225;28;20034;-66
2023/05/07 07:04:50;;;;;;;5.57;3.90;;;12.90;96.80;;;;;;4962289;28;20134;-67
2023/05/07 07:07:16;;;;;;;5.25;3.45;;;13.00;96.50;;;;;;4970428;28;20023;-67
2023/05/07 07:09:45;;;;;;;5.50;3.83;;;12.90;96.40;;;;;;4967867;28;20038;-66
2023/05/07 07:12:14;;;;;;;4.65;3.30;;;13.00;96.80;;;;;;4963633;28;20038;-67
2023/05/07 07:14:40;;;;;;;5.63;3.72;;;12.90;96.80;;;;;;4965080;28;20031;-67
2023/05/07 07:17:06;;;;;;;4.32;3.53;;;12.80;97.10;;;;;;4966753;28;20072;-66
2023/05/07 07:19:33;;;;;;;5.80;3.22;;;12.90;96.70;;;;;;4968760;28;20342;-67
2023/05/07 07:22:01;;;;;;;4.53;2.90;;;12.80;97.00;;;;;;4973148;28;20034;-67
2023/05/07 07:24:27;;;;;;;7.28;3.83;;;12.80;96.40;;;;;;4972262;28;20924;-66
2023/05/07 07:26:57;;;;;;;5.97;3.58;;;12.90;97.10;;;;;;4973763;28;20064;-66
2023/05/07 07:29:26;;;;;;;4.53;3.05;;;12.80;97.00;;;;;;4967255;28;20023;-67
2023/05/07 07:31:52;;;;;;;3.83;2.90;;;12.90;97.20;;;;;;4964154;28;20045;-67
2023/05/07 07:34:19;;;;;;;3.53;2.53;;;12.70;96.80;;;;;;4964995;28;20653;-66
2023/05/07 07:36:45;;;;;;;4.75;3.08;;;12.60;96.40;;;;;;4975712;28;20137;-67
2023/05/07 07:39:12;;;;;;;3.38;2.55;;;12.70;96.80;;;;;;4964090;28;20447;-67
2023/05/07 07:41:38;;;;;;;9.55;3.05;;;12.70;97.10;;;;;;4967659;28;20205;-67
2023/05/07 07:44:07;;;;;;;4.60;3.10;;;12.80;97.00;;;;;;4966701;28;20061;-67
2023/05/07 07:46:35;;;;;;;4.40;3.28;;;13.00;96.80;;;;;;4952978;28;20038;-67
2023/05/07 07:49:01;;;;;;;5.65;2.88;;;13.00;96.50;;;;;;4968593;28;20537;-67
2023/05/07 07:51:27;;;;;;;5.53;3.20;;;13.00;95.90;;;;;;4967472;28;20082;-67
2023/05/07 07:53:53;;;;;;;7.50;3.22;;;13.10;95.80;;;;;;4966820;28;20042;-67
2023/05/07 07:56:19;;;;;;;4.53;2.95;;;13.10;95.70;;;;;;4955990;28;20086;-67
2023/05/07 07:58:45;;;;;;;4.25;3.00;;;13.10;95.60;;;;;;4965342;28;20031;-67
2023/05/07 08:01:12;;;;;;;4.30;2.72;;;13.30;95.50;;;;;;4971779;28;20039;-67
2023/05/07 08:03:39;;;;;;;3.28;2.80;;;13.30;95.00;;;;;;4963734;28;20034;-67
2023/05/07 08:06:05;;;;;;;4.45;3.03;;;13.30;95.50;;;;;;4964198;28;20035;-67
2023/05/07 08:08:33;;;;;;;3.72;2.75;;;13.60;95.20;;;;;;4967728;28;20073;-67
2023/05/07 08:10:59;;;;;;;5.28;3.20;;;13.60;94.90;;;;;;4964452;28;20034;-67
2023/05/07 08:13:30;;;;;;;4.55;3.33;;;13.70;94.80;;;;;;4967239;28;20027;-67
2023/05/07 08:15:56;;;;;;;4.93;3.05;;;13.80;94.70;;;;;;4961260;28;20037;-67
2023/05/07 08:18:24;;;;;;;5.40;3.42;;;13.90;94.60;;;;;;4969861;28;20032;-67
2023/05/07 08:20:51;;;;;;;5.95;3.00;;;13.90;94.60;;;;;;4972927;28;20121;-67
2023/05/07 08:23:21;;;;;;;5.82;3.03;;;14.00;94.10;;;;;;4970403;28;20077;-67
2023/05/07 08:25:48;;;;;;;4.28;3.08;;;14.10;94.30;;;;;;4972110;28;20033;-67
2023/05/07 08:28:15;;;;;;;4.20;3.03;;;13.90;93.70;;;;;;4959121;28;20129;-67
2023/05/07 08:30:41;;;;;;;2.92;2.63;;;13.90;93.80;;;;;;4965911;28;20058;-67
2023/05/07 08:33:08;;;;;;;6.90;3.78;;;14.00;93.90;;;;;;4961184;28;20550;-67
2023/05/07 08:35:34;;;;;;;4.13;2.72;;;14.00;93.40;;;;;;4960269;28;20042;-66
2023/05/07 08:38:00;;;;;;;2.75;2.33;;;14.10;94.30;;;;;;4969770;28;20030;-67
2023/05/07 08:40:27;;;;;;;2.63;2.42;;;14.40;94.20;;;;;;4958925;28;20778;-67
2023/05/07 08:42:56;;;;;;;6.13;2.95;;;14.70;93.70;;;;;;4971232;28;20042;-67
2023/05/07 08:45:23;;;;;;;3.10;2.55;;;14.90;93.30;;;;;;4971372;28;20027;-66
2023/05/07 08:47:57;;;;;;;4.93;2.40;;;15.00;92.40;;;;;;4967909;28;20696;-68
2023/05/07 08:50:26;;;;;;;3.33;2.15;;;15.00;91.90;;;;;;4959203;28;20038;-66
2023/05/07 08:52:53;;;;;;;3.92;2.75;;;14.90;91.80;;;;;;4966156;28;20041;-67
2023/05/07 08:55:20;;;;;;;4.07;2.63;;;14.90;92.00;;;;;;4951198;28;20026;-66
2023/05/07 08:57:48;;;;;;;3.92;2.15;;;15.20;92.30;;;;;;4966780;28;20454;-66
2023/05/07 09:00:17;;;;;;;2.85;2.28;;;15.60;91.50;;;;;;4967857;28;20213;-65
2023/05/07 09:02:44;;;;;;;3.53;2.10;;;16.00;90.30;;;;;;4949401;28;20077;-66
2023/05/07 09:05:10;;;;;;;3.80;2.60;;;16.10;88.00;;;;;;4968307;28;20038;-67
2023/05/07 09:07:37;;;;;;;3.92;2.65;;;15.90;88.30;;;;;;4971773;28;20132;-67
2023/05/07 09:10:06;;;;;;;3.42;2.63;;;15.90;90.00;;;;;;4968390;28;20090;-66
2023/05/07 09:12:36;;;;;;;4.28;2.53;;;15.90;90.20;;;;;;4966880;28;20034;-67
2023/05/07 09:15:03;;;;;;;3.60;2.17;;;16.10;90.50;;;;;;4970534;28;20038;-67
2023/05/07 09:17:31;;;;;;;2.75;1.83;;;16.10;88.80;;;;;;4968018;28;20035;-68
2023/05/07 09:20:04;;;;;;;5.57;2.35;;;16.20;89.30;;;;;;4969483;28;20084;-68
2023/05/07 09:22:36;;;;;;;4.95;2.40;;;16.50;88.80;;;;;;4963653;28;20030;-67
2023/05/07 09:25:09;;;;;;;2.55;1.85;;;17.00;86.00;;;;;;4963125;28;20027;-68
2023/05/07 09:27:36;;;;;;;3.28;2.40;;;17.10;83.90;;;;;;4964475;28;20037;-68
2023/05/07 09:30:07;;;;;;;2.65;2.00;;;17.20;83.60;;;;;;4956735;28;20164;-68
2023/05/07 09:32:37;;;;;;;5.35;1.83;;;17.20;84.20;;;;;;4967871;28;20038;-68
2023/05/07 09:35:05;;;;;;;2.95;1.63;;;17.00;82.20;;;;;;4971910;28;20045;-68
2023/05/07 09:37:32;;;;;;;3.83;2.20;;;16.90;83.20;;;;;;4969433;28;20073;-68
2023/05/07 09:39:58;;;;;;;1.80;1.70;;;17.00;83.20;;;;;;4970341;28;20031;-69
2023/05/07 09:42:28;;;;;;;3.80;1.92;;;17.20;83.70;;;;;;4963244;28;20121;-69
2023/05/07 09:44:59;;;;;;;4.20;1.90;;;17.10;82.30;;;;;;4968704;28;20037;-69
2023/05/07 09:47:35;;;;;;;2.13;1.77;;;17.00;82.10;;;;;;4974063;28;20023;-68
2023/05/07 09:50:06;;;;;;;2.55;2.00;;;16.80;83.40;;;;;;4961827;28;20442;-72
2023/05/07 09:52:35;;;;;;;5.15;2.10;;;17.00;84.50;;;;;;4959560;28;20046;-69
2023/05/07 09:55:04;;;;;;;2.85;1.73;;;17.10;83.40;;;;;;4952543;28;20166;-69
2023/05/07 09:57:32;;;;;;;3.35;2.00;;;17.30;82.40;;;;;;4963431;28;20030;-69
2023/05/07 10:00:05;;;;;;;5.25;2.35;;;17.30;82.00;;;;;;4965742;28;20307;-68
2023/05/07 10:02:49;;;;;;;6.10;2.10;;;17.30;81.70;;;;;;4966237;28;20270;-68
2023/05/07 10:05:17;;;;;;;5.03;2.10;;;17.30;81.90;;;;;;4970519;28;20035;-68
2023/05/07 10:07:44;;;;;;;3.30;1.70;;;17.60;80.30;;;;;;4961992;28;20062;-68
2023/05/07 10:10:10;;;;;;;2.88;1.77;;;17.60;79.40;;;;;;4966705;28;20031;-68
2023/05/07 10:12:41;;;;;;;1.88;1.50;;;17.30;78.20;;;;;;4965394;28;20345;-68
2023/05/07 10:15:14;;;;;;;2.00;1.80;;;17.20;80.40;;;;;;4958888;28;20037;-70
2023/05/07 10:17:44;;;;;;;1.73;1.63;;;17.20;80.70;;;;;;4965271;28;20034;-69
2023/05/07 10:20:12;;;;;;;2.20;1.70;;;17.00;79.00;;;;;;4960811;28;20038;-70
2023/05/07 10:22:48;;;;;;;2.80;1.92;;;17.00;81.00;;;;;;4964589;28;20033;-69
2023/05/07 10:25:29;;;;;;;2.13;1.52;;;17.00;81.80;;;;;;4959927;28;20035;-69
2023/05/07 10:28:03;;;;;;;3.13;1.80;;;17.20;80.10;;;;;;4958330;28;20026;-69
2023/05/07 10:30:40;;;;;;;1.67;1.35;;;17.20;82.00;;;;;;4953189;28;20165;-70
2023/05/07 10:33:10;;;;;;;1.58;1.23;;;17.40;79.20;;;;;;4962942;28;20118;-70
2023/05/07 10:35:41;;;;;;;2.30;1.60;;;17.20;77.00;;;;;;4962185;28;20026;-69
2023/05/07 10:38:09;;;;;;;2.30;1.55;;;17.10;77.60;;;;;;4950414;28;20034;-70
2023/05/07 10:40:38;;;;;;;2.50;1.67;;;17.10;77.40;;;;;;4961803;28;20510;-69
2023/05/07 10:43:06;;;;;;;1.50;1.40;;;17.00;78.70;;;;;;4960873;28;20031;-69
2023/05/07 10:45:38;;;;;;;3.42;1.67;;;17.00;78.70;;;;;;4957317;28;20026;-69
2023/05/07 10:48:07;;;;;;;3.47;2.08;;;17.10;77.70;;;;;;4956568;28;20035;-70
2023/05/07 10:50:32;;;;;;;1.83;1.63;;;17.20;78.30;;;;;;4957052;28;20060;-69
2023/05/07 10:53:17;;;;;;;2.70;1.65;;;17.00;80.20;;;;;;4965361;28;20030;-69
2023/05/07 10:56:25;;;;;;;2.70;1.60;;;17.10;79.60;;;;;;4967275;28;20044;-69
2023/05/07 10:59:20;;;;;;;2.00;1.40;;;17.10;79.20;;;;;;4872325;29;20033;-69
2023/05/07 11:02:15;;;;;;;3.67;1.40;;;17.30;81.50;;;;;;4966297;28;20491;-69
2023/05/07 11:05:20;;;;;;;1.95;1.20;;;17.40;78.80;;;;;;4956098;28;20039;-69
2023/05/07 11:07:57;;;;;;;3.00;1.33;;;17.30;76.00;;;;;;4957919;28;20031;-69
2023/05/07 11:10:54;;;;;;;1.98;1.40;;;17.30;77.60;;;;;;4955133;28;20027;-69
2023/05/07 11:13:48;;;;;;;1.90;1.40;;;17.20;78.50;;;;;;4970834;28;20034;-69
2023/05/07 11:16:44;;;;;;;1.75;1.30;;;17.30;78.90;;;;;;4954655;28;20046;-69
2023/05/07 11:19:50;;;;;;;1.77;1.48;;;17.20;77.00;;;;;;4966252;28;20023;-69
2023/05/07 11:22:36;;;;;;;2.20;1.60;;;17.10;77.00;;;;;;4961462;28;20030;-69
2023/05/07 11:25:34;;;;;;;2.75;1.52;;;17.00;79.20;;;;;;4944525;28;20038;-69
2023/05/07 11:28:13;;;;;;;4.38;1.80;;;17.20;78.90;;;;;;4958762;28;20094;-69
2023/05/07 11:31:00;;;;;;;3.10;1.75;;;17.30;80.80;;;;;;4956066;28;20043;-69
2023/05/07 11:33:26;;;;;;;2.03;1.80;;;17.40;79.60;;;;;;4969704;28;20109;-69
2023/05/07 11:35:54;;;;;;;2.83;1.85;;;17.40;79.10;;;;;;4960140;28;20039;-69
2023/05/07 11:38:23;;;;;;;2.90;1.80;;;17.50;76.70;;;;;;4961789;28;20145;-69
2023/05/07 11:40:52;;;;;;;2.05;1.48;;;17.60;76.50;;;;;;4960984;28;20046;-69
2023/05/07 11:43:18;;;;;;;1.30;1.20;;;17.60;77.30;;;;;;4961696;28;20069;-69
2023/05/07 11:45:48;;;;;;;3.47;1.60;;;17.30;74.40;;;;;;4955286;28;20134;-69
2023/05/07 11:48:14;;;;;;;3.20;1.40;;;17.20;77.80;;;;;;4957759;28;20054;-69
2023/05/07 11:51:11;;;;;;;1.42;1.17;;;17.10;75.50;;;;;;4971478;28;20034;-69
2023/05/07 11:53:39;;;;;;;1.88;1.20;;;16.90;74.30;;;;;;4957087;28;20043;-69
2023/05/07 11:56:10;;;;;;;2.00;1.80;;;17.00;75.60;;;;;;4966111;28;20350;-69
2023/05/07 11:58:36;;;;;;;2.85;1.50;;;17.10;76.80;;;;;;4972130;28;20628;-69
2023/05/07 12:01:02;;;;;;;1.70;1.60;;;17.00;75.10;;;;;;4963307;28;20062;-69
2023/05/07 12:03:28;;;;;;;2.83;1.38;;;16.90;75.50;;;;;;4963478;28;20070;-69
2023/05/07 12:05:54;;;;;;;3.83;1.63;;;17.00;76.20;;;;;;4967958;28;20050;-69
2023/05/07 12:08:21;;;;;;;1.58;1.48;;;16.90;75.00;;;;;;4963969;28;20664;-69
2023/05/07 12:10:49;;;;;;;1.77;1.40;;;16.90;76.10;;;;;;4964205;28;20054;-69
2023/05/07 12:13:20;;;;;;;3.15;2.10;;;16.80;74.80;;;;;;4966841;28;20031;-69
2023/05/07 12:15:46;;;;;;;2.05;1.65;;;16.80;75.40;;;;;;4961264;28;20125;-69
2023/05/07 12:18:13;;;;;;;3.65;1.63;;;16.80;75.80;;;;;;4965801;28;20026;-69
2023/05/07 12:20:39;;;;;;;1.77;1.45;;;16.80;77.00;;;;;;4963864;28;20023;-69
2023/05/07 12:23:05;;;;;;;3.50;2.28;;;16.80;75.00;;;;;;4967613;28;20038;-69
2023/05/07 12:25:46;;;;;;;2.83;1.75;;;16.70;74.40;;;;;;4963637;28;20146;-69
2023/05/07 12:28:16;;;;;;;1.92;1.60;;;16.80;75.90;;;;;;4962636;28;20491;-69
2023/05/07 12:30:43;;;;;;;3.45;1.60;;;16.70;77.50;;;;;;4967724;28;20041;-68
2023/05/07 12:33:09;;;;;;;2.28;1.85;;;16.70;75.60;;;;;;4963035;28;20121;-69
2023/05/07 12:35:42;;;;;;;2.03;1.80;;;16.80;76.50;;;;;;4968142;28;20034;-69
2023/05/07 12:38:12;;;;;;;1.40;1.30;;;17.00;76.40;;;;;;4964716;28;20043;-68
2023/05/07 12:40:43;;;;;;;3.45;1.40;;;16.90;72.80;;;;;;4964445;28;20042;-69
2023/05/07 12:43:17;;;;;;;1.95;1.65;;;16.90;73.70;;;;;;4971343;28;20578;-69
2023/05/07 12:45:43;;;;;;;4.03;1.52;;;17.00;75.10;;;;;;4963621;28;20710;-69
2023/05/07 12:48:10;;;;;;;3.08;1.63;;;16.90;72.60;;;;;;4969673;28;20037;-69
2023/05/07 12:50:36;;;;;;;1.88;1.60;;;16.90;73.40;;;;;;4969851;28;20029;-69
2023/05/07 12:53:07;;;;;;;1.95;1.40;;;16.80;74.10;;;;;;4972249;28;20035;-69
2023/05/07 12:55:45;;;;;;;3.72;1.55;;;16.70;75.30;;;;;;4956920;28;20027;-69